sensor_id;sensor_type;location;lat;lon;timestamp;noise_LAeq;noise_LA_min;noise_LA_max;noise_LA01;noise_LA95
49732;Laerm;43666;51.442;6.778;2024-01-11T00:01:12;38.15;35.04;40.33;;
49732;Laerm;43666;51.442;6.778;2024-01-11T00:03:38;38.12;35.04;40.23;;
49732;Laerm;43666;51.442;6.778;2024-01-11T00:06:04;38.13;35.36;40.43;;
49732;Laerm;43666;51.442;6.778;2024-01-11T00:08:30;38.13;34.69;40.62;;
49732;Laerm;43666;51.442;6.778;2024-01-11T00:10:56;38.11;34.69;40.27;;
49732;Laerm;43666;51.442;6.778;2024-01-11T00:13:22;38.11;34.69;40.53;;
49732;Laerm;43666;51.442;6.778;2024-01-11T00:15:48;38.08;35.04;40.43;;
49732;Laerm;43666;51.442;6.778;2024-01-11T00:18:14;38.10;35.36;40.33;;
49732;Laerm;43666;51.442;6.778;2024-01-11T00:20:40;38.08;35.04;40.33;;
49732;Laerm;43666;51.442;6.778;2024-01-11T00:23:06;38.08;34.69;40.62;;
49732;Laerm;43666;51.442;6.778;2024-01-11T00:25:32;38.07;35.04;40.33;;
49732;Laerm;43666;51.442;6.778;2024-01-11T00:27:57;38.07;35.01;40.43;;
49732;Laerm;43666;51.442;6.778;2024-01-11T00:30:23;38.08;34.31;40.33;;
49732;Laerm;43666;51.442;6.778;2024-01-11T00:32:49;38.08;35.36;40.62;;
49732;Laerm;43666;51.442;6.778;2024-01-11T00:35:15;38.08;35.04;40.33;;
49732;Laerm;43666;51.442;6.778;2024-01-11T00:37:42;38.05;35.04;40.23;;
49732;Laerm;43666;51.442;6.778;2024-01-11T00:40:07;38.08;35.04;40.33;;
49732;Laerm;43666;51.442;6.778;2024-01-11T00:42:33;38.06;35.36;40.33;;
49732;Laerm;43666;51.442;6.778;2024-01-11T00:45:00;38.07;35.01;40.62;;
49732;Laerm;43666;51.442;6.778;2024-01-11T00:47:27;38.08;34.69;40.71;;
49732;Laerm;43666;51.442;6.778;2024-01-11T00:49:52;38.07;35.01;40.62;;
49732;Laerm;43666;51.442;6.778;2024-01-11T00:52:19;38.09;35.04;40.53;;
49732;Laerm;43666;51.442;6.778;2024-01-11T00:54:45;38.06;34.69;40.33;;
49732;Laerm;43666;51.442;6.778;2024-01-11T00:57:11;38.05;35.36;40.43;;
49732;Laerm;43666;51.442;6.778;2024-01-11T00:59:36;38.05;35.04;40.53;;
49732;Laerm;43666;51.442;6.778;2024-01-11T01:02:02;38.07;35.04;40.43;;
49732;Laerm;43666;51.442;6.778;2024-01-11T01:04:28;38.06;34.31;40.33;;
49732;Laerm;43666;51.442;6.778;2024-01-11T01:06:54;38.05;35.04;40.43;;
49732;Laerm;43666;51.442;6.778;2024-01-11T01:09:20;37.98;34.69;40.43;;
49732;Laerm;43666;51.442;6.778;2024-01-11T01:11:46;37.99;35.04;40.23;;
49732;Laerm;43666;51.442;6.778;2024-01-11T01:14:12;37.98;35.01;40.33;;
49732;Laerm;43666;51.442;6.778;2024-01-11T01:16:37;37.98;35.04;40.13;;
49732;Laerm;43666;51.442;6.778;2024-01-11T01:19:03;37.97;35.36;40.43;;
49732;Laerm;43666;51.442;6.778;2024-01-11T01:21:28;37.90;34.69;40.23;;
49732;Laerm;43666;51.442;6.778;2024-01-11T01:23:54;37.92;34.31;40.43;;
49732;Laerm;43666;51.442;6.778;2024-01-11T01:26:20;37.91;34.31;40.33;;
49732;Laerm;43666;51.442;6.778;2024-01-11T01:28:46;37.86;33.90;40.43;;
49732;Laerm;43666;51.442;6.778;2024-01-11T01:31:11;37.87;34.31;40.13;;
49732;Laerm;43666;51.442;6.778;2024-01-11T01:33:39;37.83;34.69;40.53;;
49732;Laerm;43666;51.442;6.778;2024-01-11T01:36:07;37.81;34.31;40.13;;
49732;Laerm;43666;51.442;6.778;2024-01-11T01:38:33;37.76;35.01;40.23;;
49732;Laerm;43666;51.442;6.778;2024-01-11T01:40:59;37.75;33.90;40.62;;
49732;Laerm;43666;51.442;6.778;2024-01-11T01:43:25;43.99;31.68;78.16;;
49732;Laerm;43666;51.442;6.778;2024-01-11T01:45:50;37.78;34.69;40.33;;
49732;Laerm;43666;51.442;6.778;2024-01-11T01:48:16;37.76;34.69;40.23;;
49732;Laerm;43666;51.442;6.778;2024-01-11T01:50:42;37.73;33.44;40.23;;
49732;Laerm;43666;51.442;6.778;2024-01-11T01:53:11;37.74;34.31;40.23;;
49732;Laerm;43666;51.442;6.778;2024-01-11T01:55:37;37.78;34.69;40.33;;
49732;Laerm;43666;51.442;6.778;2024-01-11T01:58:03;37.73;34.31;40.03;;
49732;Laerm;43666;51.442;6.778;2024-01-11T02:00:29;37.72;34.31;40.03;;
49732;Laerm;43666;51.442;6.778;2024-01-11T02:02:54;37.69;33.44;40.13;;
49732;Laerm;43666;51.442;6.778;2024-01-11T02:05:20;37.68;34.31;40.03;;
49732;Laerm;43666;51.442;6.778;2024-01-11T02:07:46;37.71;34.31;40.03;;
49732;Laerm;43666;51.442;6.778;2024-01-11T02:10:12;37.66;34.31;40.23;;
49732;Laerm;43666;51.442;6.778;2024-01-11T02:12:38;37.68;34.31;40.33;;
49732;Laerm;43666;51.442;6.778;2024-01-11T02:15:04;37.69;33.90;40.23;;
49732;Laerm;43666;51.442;6.778;2024-01-11T02:17:30;37.69;34.31;40.03;;
49732;Laerm;43666;51.442;6.778;2024-01-11T02:19:56;37.68;33.90;40.53;;
49732;Laerm;43666;51.442;6.778;2024-01-11T02:22:22;37.65;34.31;40.33;;
49732;Laerm;43666;51.442;6.778;2024-01-11T02:24:49;37.67;34.31;40.03;;
49732;Laerm;43666;51.442;6.778;2024-01-11T02:27:15;37.63;34.31;39.92;;
49732;Laerm;43666;51.442;6.778;2024-01-11T02:29:40;37.63;33.90;40.23;;
49732;Laerm;43666;51.442;6.778;2024-01-11T02:32:06;37.65;34.31;40.03;;
49732;Laerm;43666;51.442;6.778;2024-01-11T02:34:33;37.62;34.69;40.03;;
49732;Laerm;43666;51.442;6.778;2024-01-11T02:36:59;37.60;34.31;39.92;;
49732;Laerm;43666;51.442;6.778;2024-01-11T02:39:25;37.60;33.90;39.92;;
49732;Laerm;43666;51.442;6.778;2024-01-11T02:41:53;37.58;34.31;40.03;;
49732;Laerm;43666;51.442;6.778;2024-01-11T02:44:20;37.61;34.31;39.81;;
49732;Laerm;43666;51.442;6.778;2024-01-11T02:46:45;37.59;34.31;40.03;;
49732;Laerm;43666;51.442;6.778;2024-01-11T02:49:11;37.55;33.90;40.23;;
49732;Laerm;43666;51.442;6.778;2024-01-11T02:51:36;37.55;32.35;40.13;;
49732;Laerm;43666;51.442;6.778;2024-01-11T02:54:02;37.57;33.90;40.13;;
49732;Laerm;43666;51.442;6.778;2024-01-11T02:56:27;37.56;34.31;39.92;;
49732;Laerm;43666;51.442;6.778;2024-01-11T02:58:53;37.58;32.93;40.33;;
49732;Laerm;43666;51.442;6.778;2024-01-11T03:01:19;37.55;33.44;40.53;;
49732;Laerm;43666;51.442;6.778;2024-01-11T03:03:45;37.52;32.93;40.13;;
49732;Laerm;43666;51.442;6.778;2024-01-11T03:06:10;37.55;33.90;40.33;;
49732;Laerm;43666;51.442;6.778;2024-01-11T03:08:36;37.56;34.31;40.33;;
49732;Laerm;43666;51.442;6.778;2024-01-11T03:11:02;37.55;32.93;40.33;;
49732;Laerm;43666;51.442;6.778;2024-01-11T03:13:27;37.60;33.44;40.33;;
49732;Laerm;43666;51.442;6.778;2024-01-11T03:15:53;37.56;33.44;40.23;;
49732;Laerm;43666;51.442;6.778;2024-01-11T03:18:19;37.60;33.90;40.23;;
49732;Laerm;43666;51.442;6.778;2024-01-11T03:20:44;37.59;33.90;39.92;;
49732;Laerm;43666;51.442;6.778;2024-01-11T03:23:10;37.59;33.44;40.13;;
49732;Laerm;43666;51.442;6.778;2024-01-11T03:25:36;37.58;33.90;40.23;;
49732;Laerm;43666;51.442;6.778;2024-01-11T03:28:01;37.60;33.90;40.23;;
49732;Laerm;43666;51.442;6.778;2024-01-11T03:30:27;37.57;32.93;40.23;;
49732;Laerm;43666;51.442;6.778;2024-01-11T03:32:53;37.55;33.90;40.13;;
49732;Laerm;43666;51.442;6.778;2024-01-11T03:35:19;37.57;33.90;40.23;;
49732;Laerm;43666;51.442;6.778;2024-01-11T03:37:45;37.57;33.44;40.33;;
49732;Laerm;43666;51.442;6.778;2024-01-11T03:40:11;37.55;33.44;39.92;;
49732;Laerm;43666;51.442;6.778;2024-01-11T03:42:37;37.58;34.31;40.03;;
49732;Laerm;43666;51.442;6.778;2024-01-11T03:45:03;37.56;33.90;40.33;;
49732;Laerm;43666;51.442;6.778;2024-01-11T03:47:29;37.59;33.90;40.03;;
49732;Laerm;43666;51.442;6.778;2024-01-11T03:49:55;37.55;33.90;40.13;;
49732;Laerm;43666;51.442;6.778;2024-01-11T03:52:20;37.54;33.90;40.13;;
49732;Laerm;43666;51.442;6.778;2024-01-11T03:54:46;37.57;34.31;40.13;;
49732;Laerm;43666;51.442;6.778;2024-01-11T03:57:12;37.54;34.31;40.13;;
49732;Laerm;43666;51.442;6.778;2024-01-11T03:59:38;37.54;33.90;39.92;;
49732;Laerm;43666;51.442;6.778;2024-01-11T04:02:03;37.53;33.90;39.92;;
49732;Laerm;43666;51.442;6.778;2024-01-11T04:04:29;37.53;33.90;40.23;;
49732;Laerm;43666;51.442;6.778;2024-01-11T04:06:55;37.48;33.90;40.18;;
49732;Laerm;43666;51.442;6.778;2024-01-11T04:09:21;37.52;33.90;40.13;;
49732;Laerm;43666;51.442;6.778;2024-01-11T04:11:47;37.49;33.44;40.13;;
49732;Laerm;43666;51.442;6.778;2024-01-11T04:14:13;37.54;33.90;40.13;;
49732;Laerm;43666;51.442;6.778;2024-01-11T04:16:42;37.54;34.31;40.33;;
49732;Laerm;43666;51.442;6.778;2024-01-11T04:19:08;37.53;33.44;40.13;;
49732;Laerm;43666;51.442;6.778;2024-01-11T04:21:33;37.53;33.90;39.92;;
49732;Laerm;43666;51.442;6.778;2024-01-11T04:23:59;37.52;34.31;40.23;;
49732;Laerm;43666;51.442;6.778;2024-01-11T04:26:25;37.56;34.31;40.23;;
49732;Laerm;43666;51.442;6.778;2024-01-11T04:28:51;37.55;34.31;40.13;;
49732;Laerm;43666;51.442;6.778;2024-01-11T04:31:18;37.53;34.31;40.71;;
49732;Laerm;43666;51.442;6.778;2024-01-11T04:33:44;37.55;33.90;40.33;;
49732;Laerm;43666;51.442;6.778;2024-01-11T04:36:17;37.54;33.90;39.92;;
49732;Laerm;43666;51.442;6.778;2024-01-11T04:38:43;37.55;34.31;40.33;;
49732;Laerm;43666;51.442;6.778;2024-01-11T04:41:10;37.53;34.31;40.03;;
49732;Laerm;43666;51.442;6.778;2024-01-11T04:43:39;37.54;33.90;40.23;;
49732;Laerm;43666;51.442;6.778;2024-01-11T04:46:16;37.52;33.44;40.03;;
49732;Laerm;43666;51.442;6.778;2024-01-11T04:48:42;37.57;33.90;40.13;;
49732;Laerm;43666;51.442;6.778;2024-01-11T04:51:08;37.58;34.31;40.03;;
49732;Laerm;43666;51.442;6.778;2024-01-11T04:53:36;37.54;33.44;40.33;;
49732;Laerm;43666;51.442;6.778;2024-01-11T04:56:02;37.53;33.44;39.92;;
49732;Laerm;43666;51.442;6.778;2024-01-11T04:58:28;37.53;33.44;40.23;;
49732;Laerm;43666;51.442;6.778;2024-01-11T05:00:54;37.56;33.44;39.92;;
49732;Laerm;43666;51.442;6.778;2024-01-11T05:03:20;37.53;33.44;39.92;;
49732;Laerm;43666;51.442;6.778;2024-01-11T05:05:45;37.55;33.90;40.33;;
49732;Laerm;43666;51.442;6.778;2024-01-11T05:08:11;37.55;33.90;40.33;;
49732;Laerm;43666;51.442;6.778;2024-01-11T05:10:37;37.51;33.90;40.13;;
49732;Laerm;43666;51.442;6.778;2024-01-11T05:13:03;37.51;33.90;40.23;;
49732;Laerm;43666;51.442;6.778;2024-01-11T05:15:28;37.49;33.44;40.03;;
49732;Laerm;43666;51.442;6.778;2024-01-11T05:17:57;37.51;34.31;40.33;;
49732;Laerm;43666;51.442;6.778;2024-01-11T05:20:23;37.51;33.90;40.03;;
49732;Laerm;43666;51.442;6.778;2024-01-11T05:22:49;37.53;33.55;40.13;;
49732;Laerm;43666;51.442;6.778;2024-01-11T05:25:15;37.54;33.90;40.62;;
49732;Laerm;43666;51.442;6.778;2024-01-11T05:27:40;37.54;33.90;40.33;;
49732;Laerm;43666;51.442;6.778;2024-01-11T05:30:06;37.52;33.44;39.99;;
49732;Laerm;43666;51.442;6.778;2024-01-11T05:32:32;37.50;34.31;40.23;;
49732;Laerm;43666;51.442;6.778;2024-01-11T05:34:58;37.53;32.93;40.03;;
49732;Laerm;43666;51.442;6.778;2024-01-11T05:37:24;37.52;32.93;40.33;;
49732;Laerm;43666;51.442;6.778;2024-01-11T05:39:49;37.50;33.44;39.92;;
49732;Laerm;43666;51.442;6.778;2024-01-11T05:42:15;37.50;32.93;40.33;;
49732;Laerm;43666;51.442;6.778;2024-01-11T05:44:42;37.53;33.44;40.23;;
49732;Laerm;43666;51.442;6.778;2024-01-11T05:47:08;37.52;33.44;40.03;;
49732;Laerm;43666;51.442;6.778;2024-01-11T05:49:33;37.52;32.93;40.53;;
49732;Laerm;43666;51.442;6.778;2024-01-11T05:51:59;37.50;32.93;40.53;;
49732;Laerm;43666;51.442;6.778;2024-01-11T05:54:25;37.50;33.90;40.43;;
49732;Laerm;43666;51.442;6.778;2024-01-11T05:56:52;37.82;31.68;62.66;;
49732;Laerm;43666;51.442;6.778;2024-01-11T05:59:23;37.48;33.44;40.03;;
49732;Laerm;43666;51.442;6.778;2024-01-11T06:01:49;37.49;33.90;40.03;;
49732;Laerm;43666;51.442;6.778;2024-01-11T06:04:14;37.50;32.35;40.33;;
49732;Laerm;43666;51.442;6.778;2024-01-11T06:06:40;37.54;33.90;40.03;;
49732;Laerm;43666;51.442;6.778;2024-01-11T06:09:06;37.52;33.90;40.13;;
49732;Laerm;43666;51.442;6.778;2024-01-11T06:11:32;37.49;33.44;40.33;;
49732;Laerm;43666;51.442;6.778;2024-01-11T06:13:58;37.50;32.93;40.43;;
49732;Laerm;43666;51.442;6.778;2024-01-11T06:16:24;37.52;33.90;40.13;;
49732;Laerm;43666;51.442;6.778;2024-01-11T06:18:50;37.50;34.31;40.23;;
49732;Laerm;43666;51.442;6.778;2024-01-11T06:21:15;37.52;33.90;40.33;;
49732;Laerm;43666;51.442;6.778;2024-01-11T06:23:45;37.49;33.44;40.33;;
49732;Laerm;43666;51.442;6.778;2024-01-11T06:26:11;37.50;33.44;40.23;;
49732;Laerm;43666;51.442;6.778;2024-01-11T06:28:36;37.50;33.90;40.23;;
49732;Laerm;43666;51.442;6.778;2024-01-11T06:31:02;37.48;34.31;40.33;;
49732;Laerm;43666;51.442;6.778;2024-01-11T06:33:28;37.53;33.44;39.81;;
49732;Laerm;43666;51.442;6.778;2024-01-11T06:35:54;37.52;32.93;39.92;;
49732;Laerm;43666;51.442;6.778;2024-01-11T06:38:21;37.51;33.44;40.03;;
49732;Laerm;43666;51.442;6.778;2024-01-11T06:40:48;37.48;33.90;40.23;;
49732;Laerm;43666;51.442;6.778;2024-01-11T06:43:14;37.52;33.90;40.03;;
49732;Laerm;43666;51.442;6.778;2024-01-11T06:45:40;37.52;33.44;39.92;;
49732;Laerm;43666;51.442;6.778;2024-01-11T06:48:06;37.49;33.90;40.03;;
49732;Laerm;43666;51.442;6.778;2024-01-11T06:50:32;37.49;32.35;40.13;;
49732;Laerm;43666;51.442;6.778;2024-01-11T06:52:58;37.50;33.44;40.13;;
49732;Laerm;43666;51.442;6.778;2024-01-11T06:55:23;37.50;33.44;40.23;;
49732;Laerm;43666;51.442;6.778;2024-01-11T06:57:49;37.52;34.31;40.03;;
49732;Laerm;43666;51.442;6.778;2024-01-11T07:00:14;37.52;33.90;40.23;;
49732;Laerm;43666;51.442;6.778;2024-01-11T07:02:41;37.50;33.90;39.92;;
49732;Laerm;43666;51.442;6.778;2024-01-11T07:05:07;37.49;32.35;40.80;;
49732;Laerm;43666;51.442;6.778;2024-01-11T07:07:33;37.51;33.90;39.92;;
49732;Laerm;43666;51.442;6.778;2024-01-11T07:09:58;37.53;33.44;40.13;;
49732;Laerm;43666;51.442;6.778;2024-01-11T07:12:25;37.55;34.31;40.03;;
49732;Laerm;43666;51.442;6.778;2024-01-11T07:14:54;37.52;33.90;40.13;;
49732;Laerm;43666;51.442;6.778;2024-01-11T07:17:19;37.53;34.31;39.92;;
49732;Laerm;43666;51.442;6.778;2024-01-11T07:19:45;37.50;33.90;40.23;;
49732;Laerm;43666;51.442;6.778;2024-01-11T07:22:11;37.52;33.44;40.03;;
49732;Laerm;43666;51.442;6.778;2024-01-11T07:24:36;37.55;34.31;40.03;;
49732;Laerm;43666;51.442;6.778;2024-01-11T07:27:05;37.55;33.44;40.54;;
49732;Laerm;43666;51.442;6.778;2024-01-11T07:29:31;37.51;33.90;40.03;;
49732;Laerm;43666;51.442;6.778;2024-01-11T07:31:57;37.53;33.44;39.92;;
49732;Laerm;43666;51.442;6.778;2024-01-11T07:34:22;37.52;33.44;40.03;;
49732;Laerm;43666;51.442;6.778;2024-01-11T07:36:50;37.51;32.35;39.99;;
49732;Laerm;43666;51.442;6.778;2024-01-11T07:39:16;37.52;33.90;40.03;;
49732;Laerm;43666;51.442;6.778;2024-01-11T07:41:42;37.52;33.44;40.13;;
49732;Laerm;43666;51.442;6.778;2024-01-11T07:44:08;37.54;33.90;40.43;;
49732;Laerm;43666;51.442;6.778;2024-01-11T07:46:34;37.52;33.44;40.03;;
49732;Laerm;43666;51.442;6.778;2024-01-11T07:48:59;37.53;33.44;40.23;;
49732;Laerm;43666;51.442;6.778;2024-01-11T07:51:25;37.53;34.31;40.03;;
49732;Laerm;43666;51.442;6.778;2024-01-11T07:53:51;37.54;33.44;40.62;;
49732;Laerm;43666;51.442;6.778;2024-01-11T07:56:16;37.53;34.31;40.33;;
49732;Laerm;43666;51.442;6.778;2024-01-11T07:58:42;37.55;32.35;40.13;;
49732;Laerm;43666;51.442;6.778;2024-01-11T08:01:08;37.56;33.44;39.92;;
49732;Laerm;43666;51.442;6.778;2024-01-11T08:03:34;37.52;33.44;40.03;;
49732;Laerm;43666;51.442;6.778;2024-01-11T08:06:00;37.54;33.44;40.45;;
49732;Laerm;43666;51.442;6.778;2024-01-11T08:08:26;37.56;33.90;40.33;;
49732;Laerm;43666;51.442;6.778;2024-01-11T08:10:53;37.54;33.90;39.92;;
49732;Laerm;43666;51.442;6.778;2024-01-11T08:13:19;37.54;33.90;40.53;;
49732;Laerm;43666;51.442;6.778;2024-01-11T08:15:46;37.58;33.44;40.53;;
49732;Laerm;43666;51.442;6.778;2024-01-11T08:18:13;37.59;32.93;40.13;;
49732;Laerm;43666;51.442;6.778;2024-01-11T08:20:39;37.57;32.93;39.92;;
49732;Laerm;43666;51.442;6.778;2024-01-11T08:23:05;37.56;33.90;40.03;;
49732;Laerm;43666;51.442;6.778;2024-01-11T08:25:32;37.61;33.90;40.43;;
49732;Laerm;43666;51.442;6.778;2024-01-11T08:27:57;37.59;33.90;40.03;;
49732;Laerm;43666;51.442;6.778;2024-01-11T08:30:23;37.57;33.44;40.03;;
49732;Laerm;43666;51.442;6.778;2024-01-11T08:32:49;37.56;33.90;40.33;;
49732;Laerm;43666;51.442;6.778;2024-01-11T08:35:14;37.62;34.31;40.13;;
49732;Laerm;43666;51.442;6.778;2024-01-11T08:37:41;37.60;33.90;40.33;;
49732;Laerm;43666;51.442;6.778;2024-01-11T08:40:07;37.59;33.90;40.13;;
49732;Laerm;43666;51.442;6.778;2024-01-11T08:42:34;37.57;33.90;40.13;;
49732;Laerm;43666;51.442;6.778;2024-01-11T08:45:00;37.61;33.44;40.33;;
49732;Laerm;43666;51.442;6.778;2024-01-11T08:47:33;37.63;33.90;40.80;;
49732;Laerm;43666;51.442;6.778;2024-01-11T08:49:58;37.65;34.31;39.92;;
49732;Laerm;43666;51.442;6.778;2024-01-11T08:52:24;37.65;33.90;39.92;;
49732;Laerm;43666;51.442;6.778;2024-01-11T08:54:50;37.63;34.31;40.03;;
49732;Laerm;43666;51.442;6.778;2024-01-11T08:57:16;37.65;33.90;40.03;;
49732;Laerm;43666;51.442;6.778;2024-01-11T08:59:42;37.66;32.93;40.03;;
49732;Laerm;43666;51.442;6.778;2024-01-11T09:02:08;37.65;33.90;40.03;;
49732;Laerm;43666;51.442;6.778;2024-01-11T09:04:34;37.66;34.31;40.03;;
49732;Laerm;43666;51.442;6.778;2024-01-11T09:07:00;37.68;34.31;40.33;;
49732;Laerm;43666;51.442;6.778;2024-01-11T09:09:26;37.70;33.90;40.23;;
49732;Laerm;43666;51.442;6.778;2024-01-11T09:11:51;37.72;34.31;40.13;;
49732;Laerm;43666;51.442;6.778;2024-01-11T09:14:17;37.74;34.31;40.13;;
49732;Laerm;43666;51.442;6.778;2024-01-11T09:16:43;37.80;34.31;40.23;;
49732;Laerm;43666;51.442;6.778;2024-01-11T09:19:10;37.82;34.69;40.33;;
49732;Laerm;43666;51.442;6.778;2024-01-11T09:21:36;37.83;35.04;40.53;;
49732;Laerm;43666;51.442;6.778;2024-01-11T09:24:02;37.86;35.01;40.13;;
49732;Laerm;43666;51.442;6.778;2024-01-11T09:26:28;37.85;34.69;40.13;;
49732;Laerm;43666;51.442;6.778;2024-01-11T09:28:53;37.85;34.69;40.33;;
49732;Laerm;43666;51.442;6.778;2024-01-11T09:31:19;37.87;34.69;40.33;;
49732;Laerm;43666;51.442;6.778;2024-01-11T09:33:45;37.89;34.69;40.43;;
49732;Laerm;43666;51.442;6.778;2024-01-11T09:36:14;37.87;35.04;40.23;;
49732;Laerm;43666;51.442;6.778;2024-01-11T09:38:40;37.87;33.90;40.33;;
49732;Laerm;43666;51.442;6.778;2024-01-11T09:41:09;37.92;34.69;40.33;;
49732;Laerm;43666;51.442;6.778;2024-01-11T09:43:36;37.97;34.69;40.62;;
49732;Laerm;43666;51.442;6.778;2024-01-11T09:46:05;37.96;34.69;40.71;;
49732;Laerm;43666;51.442;6.778;2024-01-11T09:48:35;37.99;34.69;40.43;;
49732;Laerm;43666;51.442;6.778;2024-01-11T09:51:01;37.97;34.31;40.33;;
49732;Laerm;43666;51.442;6.778;2024-01-11T09:53:28;38.00;35.04;40.33;;
49732;Laerm;43666;51.442;6.778;2024-01-11T09:55:54;38.00;35.04;41.06;;
49732;Laerm;43666;51.442;6.778;2024-01-11T09:58:21;38.02;34.69;40.89;;
49732;Laerm;43666;51.442;6.778;2024-01-11T10:00:48;38.05;35.31;40.98;;
49732;Laerm;43666;51.442;6.778;2024-01-11T10:03:15;38.04;35.36;40.80;;
49732;Laerm;43666;51.442;6.778;2024-01-11T10:05:41;38.09;34.31;47.55;;
49732;Laerm;43666;51.442;6.778;2024-01-11T10:08:07;38.11;35.36;40.43;;
49732;Laerm;43666;51.442;6.778;2024-01-11T10:10:33;38.15;35.04;41.61;;
49732;Laerm;43666;51.442;6.778;2024-01-11T10:12:59;38.15;35.31;42.93;;
49732;Laerm;43666;51.442;6.778;2024-01-11T10:15:24;38.15;35.04;40.33;;
49732;Laerm;43666;51.442;6.778;2024-01-11T10:17:50;38.16;35.04;40.33;;
49732;Laerm;43666;51.442;6.778;2024-01-11T10:20:16;38.17;34.34;41.30;;
49732;Laerm;43666;51.442;6.778;2024-01-11T10:22:49;38.20;35.36;40.43;;
49732;Laerm;43666;51.442;6.778;2024-01-11T10:25:15;38.25;35.66;40.33;;
49732;Laerm;43666;51.442;6.778;2024-01-11T10:27:41;38.26;35.36;40.43;;
49732;Laerm;43666;51.442;6.778;2024-01-11T10:30:08;38.26;35.66;40.53;;
49732;Laerm;43666;51.442;6.778;2024-01-11T10:32:33;38.26;35.59;44.47;;
49732;Laerm;43666;51.442;6.778;2024-01-11T10:35:02;38.26;35.36;40.43;;
49732;Laerm;43666;51.442;6.778;2024-01-11T10:37:31;38.29;35.36;40.53;;
49732;Laerm;43666;51.442;6.778;2024-01-11T10:39:58;38.30;35.66;40.71;;
49732;Laerm;43666;51.442;6.778;2024-01-11T10:42:26;38.33;35.36;40.62;;
49732;Laerm;43666;51.442;6.778;2024-01-11T10:44:54;38.32;35.66;40.53;;
49732;Laerm;43666;51.442;6.778;2024-01-11T10:47:21;38.34;35.36;40.62;;
49732;Laerm;43666;51.442;6.778;2024-01-11T10:49:49;38.36;35.66;40.45;;
49732;Laerm;43666;51.442;6.778;2024-01-11T10:52:16;38.34;35.94;40.33;;
49732;Laerm;43666;51.442;6.778;2024-01-11T10:54:48;38.35;35.36;40.53;;
49732;Laerm;43666;51.442;6.778;2024-01-11T10:57:15;38.38;35.36;40.53;;
49732;Laerm;43666;51.442;6.778;2024-01-11T10:59:41;38.41;35.66;40.43;;
49732;Laerm;43666;51.442;6.778;2024-01-11T11:02:07;38.44;35.36;41.30;;
49732;Laerm;43666;51.442;6.778;2024-01-11T11:04:38;38.44;35.66;42.29;;
49732;Laerm;43666;51.442;6.778;2024-01-11T11:07:04;38.45;35.66;40.62;;
49732;Laerm;43666;51.442;6.778;2024-01-11T11:09:32;38.48;35.36;40.62;;
49732;Laerm;43666;51.442;6.778;2024-01-11T11:12:00;38.50;35.94;40.89;;
49732;Laerm;43666;51.442;6.778;2024-01-11T11:14:27;38.54;35.36;40.62;;
49732;Laerm;43666;51.442;6.778;2024-01-11T11:16:53;38.52;34.69;40.80;;
49732;Laerm;43666;51.442;6.778;2024-01-11T11:19:19;38.56;35.66;40.89;;
49732;Laerm;43666;51.442;6.778;2024-01-11T11:21:46;38.54;35.66;40.62;;
49732;Laerm;43666;51.442;6.778;2024-01-11T11:24:12;38.56;35.66;40.71;;
49732;Laerm;43666;51.442;6.778;2024-01-11T11:26:38;38.54;36.20;40.53;;
49732;Laerm;43666;51.442;6.778;2024-01-11T11:29:04;38.61;35.36;40.53;;
49732;Laerm;43666;51.442;6.778;2024-01-11T11:31:34;38.63;35.94;40.53;;
49732;Laerm;43666;51.442;6.778;2024-01-11T11:34:01;38.73;35.94;40.62;;
49732;Laerm;43666;51.442;6.778;2024-01-11T11:36:29;38.75;36.20;40.80;;
49732;Laerm;43666;51.442;6.778;2024-01-11T11:38:59;38.72;35.94;40.62;;
49732;Laerm;43666;51.442;6.778;2024-01-11T11:41:26;38.74;36.20;40.89;;
49732;Laerm;43666;51.442;6.778;2024-01-11T11:43:52;38.73;36.20;41.06;;
49732;Laerm;43666;51.442;6.778;2024-01-11T11:46:18;38.74;35.94;40.80;;
49732;Laerm;43666;51.442;6.778;2024-01-11T11:48:51;38.77;35.94;40.71;;
49732;Laerm;43666;51.442;6.778;2024-01-11T11:51:18;38.75;36.45;41.06;;
49732;Laerm;43666;51.442;6.778;2024-01-11T11:53:45;38.77;36.20;40.71;;
49732;Laerm;43666;51.442;6.778;2024-01-11T11:56:11;38.78;35.04;40.62;;
49732;Laerm;43666;51.442;6.778;2024-01-11T11:58:38;38.76;35.94;40.71;;
49732;Laerm;43666;51.442;6.778;2024-01-11T12:01:08;38.78;36.20;40.71;;
49732;Laerm;43666;51.442;6.778;2024-01-11T12:03:38;38.80;36.45;40.62;;
49732;Laerm;43666;51.442;6.778;2024-01-11T12:06:04;38.81;35.94;41.14;;
49732;Laerm;43666;51.442;6.778;2024-01-11T12:08:31;38.80;36.45;40.80;;
49732;Laerm;43666;51.442;6.778;2024-01-11T12:10:57;38.83;35.94;40.98;;
49732;Laerm;43666;51.442;6.778;2024-01-11T12:13:23;38.94;36.69;40.71;;
49732;Laerm;43666;51.442;6.778;2024-01-11T12:15:49;38.99;36.69;41.06;;
49732;Laerm;43666;51.442;6.778;2024-01-11T12:18:15;38.95;36.69;40.89;;
49732;Laerm;43666;51.442;6.778;2024-01-11T12:20:41;38.96;36.20;40.80;;
49732;Laerm;43666;51.442;6.778;2024-01-11T12:23:07;38.97;36.69;40.98;;
49732;Laerm;43666;51.442;6.778;2024-01-11T12:25:33;39.04;36.45;41.14;;
49732;Laerm;43666;51.442;6.778;2024-01-11T12:27:59;39.10;36.91;40.98;;
49732;Laerm;43666;51.442;6.778;2024-01-11T12:30:28;39.16;36.20;40.80;;
49732;Laerm;43666;51.442;6.778;2024-01-11T12:32:55;39.14;36.91;41.06;;
49732;Laerm;43666;51.442;6.778;2024-01-11T12:35:24;39.14;36.45;40.98;;
49732;Laerm;43666;51.442;6.778;2024-01-11T12:38:01;39.15;36.91;40.89;;
49732;Laerm;43666;51.442;6.778;2024-01-11T12:40:31;39.14;37.12;41.06;;
49732;Laerm;43666;51.442;6.778;2024-01-11T12:42:57;39.16;36.45;40.98;;
49732;Laerm;43666;51.442;6.778;2024-01-11T12:45:24;39.20;37.12;41.30;;
49732;Laerm;43666;51.442;6.778;2024-01-11T12:47:51;39.20;36.69;40.98;;
49732;Laerm;43666;51.442;6.778;2024-01-11T12:50:17;39.24;37.32;40.80;;
49732;Laerm;43666;51.442;6.778;2024-01-11T12:52:43;39.30;36.91;41.46;;
49732;Laerm;43666;51.442;6.778;2024-01-11T12:55:17;39.33;37.12;41.38;;
49732;Laerm;43666;51.442;6.778;2024-01-11T12:57:43;39.32;36.91;41.22;;
49732;Laerm;43666;51.442;6.778;2024-01-11T13:00:10;39.35;37.12;41.06;;
49732;Laerm;43666;51.442;6.778;2024-01-11T13:02:36;39.35;37.32;41.06;;
49732;Laerm;43666;51.442;6.778;2024-01-11T13:05:02;39.37;37.12;41.22;;
49732;Laerm;43666;51.442;6.778;2024-01-11T13:07:28;39.43;37.12;41.30;;
49732;Laerm;43666;51.442;6.778;2024-01-11T13:09:55;39.42;37.32;41.38;;
49732;Laerm;43666;51.442;6.778;2024-01-11T13:12:21;39.46;36.91;41.46;;
49732;Laerm;43666;51.442;6.778;2024-01-11T13:14:48;39.48;37.17;41.38;;
49732;Laerm;43666;51.442;6.778;2024-01-11T13:17:14;39.49;36.91;41.22;;
49732;Laerm;43666;51.442;6.778;2024-01-11T13:19:39;39.54;37.70;41.46;;
49732;Laerm;43666;51.442;6.778;2024-01-11T13:22:05;39.55;36.91;41.22;;
49732;Laerm;43666;51.442;6.778;2024-01-11T13:24:30;39.54;36.91;41.38;;
49732;Laerm;43666;51.442;6.778;2024-01-11T13:26:56;39.56;37.32;41.26;;
49732;Laerm;43666;51.442;6.778;2024-01-11T13:29:22;39.56;36.69;41.22;;
49732;Laerm;43666;51.442;6.778;2024-01-11T13:31:48;39.56;37.32;41.38;;
49732;Laerm;43666;51.442;6.778;2024-01-11T13:34:13;39.57;37.32;41.38;;
49732;Laerm;43666;51.442;6.778;2024-01-11T13:36:39;39.63;37.52;41.38;;
49732;Laerm;43666;51.442;6.778;2024-01-11T13:39:05;39.66;37.70;41.30;;